Time;durP1;ratioP1;P1;durP2;ratioP2;P2;SDS_P1;SDS_P2;PMS_P1;PMS_P2;Temp;Humidity;BMP_temperature;BMP_pressure;BME280_temperature;BME280_humidity;BME280_pressure;Samples;Min_cycle;Max_cycle;Signal;HPM_P1;HPM_P2
2021/11/13 00:00:14;;;;;;;12.47;12.07;;;17.30;85.90;;;;;;5032320;28;20449;-54
2021/11/13 00:02:40;;;;;;;11.70;11.40;;;17.20;85.90;;;;;;5032425;28;20485;-52
2021/11/13 00:05:08;;;;;;;12.80;12.40;;;17.30;86.00;;;;;;5032550;28;20458;-54
2021/11/13 00:07:35;;;;;;;12.17;11.87;;;17.30;85.70;;;;;;5032247;28;20473;-54
2021/11/13 00:10:04;;;;;;;12.10;11.70;;;17.20;85.80;;;;;;5032356;28;20437;-52
2021/11/13 00:12:31;;;;;;;11.73;11.37;;;17.20;85.90;;;;;;5032350;28;20457;-55
2021/11/13 00:14:59;;;;;;;11.83;11.53;;;17.20;85.80;;;;;;5032334;28;21088;-52
2021/11/13 00:17:26;;;;;;;12.17;11.77;;;17.20;85.80;;;;;;5032047;28;20472;-53
2021/11/13 00:19:53;;;;;;;12.77;12.37;;;17.20;85.80;;;;;;5032015;28;20444;-54
2021/11/13 00:22:19;;;;;;;12.87;12.47;;;17.20;85.90;;;;;;5032129;28;20456;-55
2021/11/13 00:24:46;;;;;;;12.10;11.70;;;17.30;85.90;;;;;;5032090;28;20496;-53
2021/11/13 00:27:14;;;;;;;12.63;12.23;;;17.20;85.60;;;;;;5032067;28;20468;-57
2021/11/13 00:29:41;;;;;;;12.60;12.20;;;17.30;85.70;;;;;;5031844;28;20441;-53
2021/11/13 00:32:08;;;;;;;12.30;11.90;;;17.20;85.60;;;;;;5032002;28;20445;-58
2021/11/13 00:34:35;;;;;;;11.90;11.50;;;17.30;85.70;;;;;;5031960;28;20452;-55
2021/11/13 00:37:02;;;;;;;11.70;11.40;;;17.20;85.70;;;;;;5031898;28;20468;-53
2021/11/13 00:39:29;;;;;;;12.67;12.27;;;17.20;85.80;;;;;;5031553;28;20453;-55
2021/11/13 00:41:56;;;;;;;12.03;11.73;;;17.20;85.60;;;;;;5031913;28;20445;-55
2021/11/13 00:44:24;;;;;;;12.33;11.93;;;17.20;85.60;;;;;;5031731;28;20488;-55
2021/11/13 00:46:51;;;;;;;12.10;11.70;;;17.20;85.40;;;;;;5031759;28;20826;-55
2021/11/13 00:49:19;;;;;;;12.23;11.90;;;17.20;85.40;;;;;;5031578;28;20449;-54
2021/11/13 00:51:46;;;;;;;11.97;11.57;;;17.20;85.50;;;;;;5031762;28;20457;-54
2021/11/13 00:54:13;;;;;;;11.90;11.50;;;17.20;85.40;;;;;;5031638;28;20563;-51
2021/11/13 00:56:40;;;;;;;12.43;12.03;;;17.20;85.50;;;;;;5031545;28;20500;-56
2021/11/13 00:59:07;;;;;;;12.27;11.87;;;17.20;85.40;;;;;;5031355;28;20837;-53
2021/11/13 01:01:35;;;;;;;12.07;11.70;;;17.20;85.60;;;;;;5031043;28;20467;-58
2021/11/13 01:04:02;;;;;;;12.67;12.17;;;17.20;85.40;;;;;;5031514;28;20483;-53
2021/11/13 01:06:29;;;;;;;11.83;11.53;;;17.20;85.40;;;;;;5031277;28;20480;-59
2021/11/13 01:08:56;;;;;;;11.80;11.43;;;17.20;85.40;;;;;;5031488;28;20452;-57
2021/11/13 01:11:22;;;;;;;12.37;11.97;;;17.20;85.40;;;;;;5031422;28;20862;-54
2021/11/13 01:13:49;;;;;;;12.23;11.83;;;17.20;85.40;;;;;;5031412;28;20444;-55
2021/11/13 01:16:16;;;;;;;12.20;11.80;;;17.30;85.20;;;;;;5031338;28;20464;-57
2021/11/13 01:18:45;;;;;;;12.47;12.07;;;17.30;85.20;;;;;;5031274;28;20445;-55
2021/11/13 01:21:12;;;;;;;12.30;12.00;;;17.20;85.00;;;;;;5031317;28;20448;-55
2021/11/13 01:23:39;;;;;;;12.67;12.27;;;17.20;85.10;;;;;;5031294;28;20858;-55
2021/11/13 01:26:06;;;;;;;12.30;12.00;;;17.20;85.00;;;;;;5031272;28;20461;-52
2021/11/13 01:28:33;;;;;;;12.50;12.10;;;17.20;85.20;;;;;;5031207;28;20448;-54
2021/11/13 01:31:00;;;;;;;12.53;12.13;;;17.20;85.30;;;;;;5031328;28;20445;-52
2021/11/13 01:33:27;;;;;;;11.67;11.37;;;17.20;85.10;;;;;;5031270;28;20540;-52
2021/11/13 01:35:55;;;;;;;12.60;12.20;;;17.20;84.90;;;;;;5031252;28;20890;-52
2021/11/13 01:38:22;;;;;;;12.07;11.67;;;17.30;84.70;;;;;;5031248;28;20499;-53
2021/11/13 01:40:49;;;;;;;12.20;11.80;;;17.20;84.80;;;;;;5031077;28;20503;-56
2021/11/13 01:43:16;;;;;;;11.70;11.40;;;17.20;84.90;;;;;;5031139;28;20477;-53
2021/11/13 01:45:43;;;;;;;11.80;11.50;;;17.10;84.80;;;;;;5031092;28;20456;-57
2021/11/13 01:48:09;;;;;;;12.17;11.80;;;17.10;84.90;;;;;;5031246;28;20460;-55
2021/11/13 01:50:38;;;;;;;12.27;11.97;;;17.20;85.00;;;;;;5030981;28;20449;-52
2021/11/13 01:53:07;;;;;;;12.27;11.87;;;17.20;85.00;;;;;;5031132;28;20817;-52
2021/11/13 01:55:36;;;;;;;11.67;11.37;;;17.20;84.90;;;;;;5031068;28;20468;-54
2021/11/13 01:58:04;;;;;;;11.80;11.50;;;17.10;84.90;;;;;;5030949;28;20453;-56
2021/11/13 02:00:35;;;;;;;12.27;11.97;;;17.10;84.80;;;;;;5030765;28;20452;-55
2021/11/13 02:03:03;;;;;;;12.80;12.33;;;17.20;84.90;;;;;;5031042;28;20946;-55
2021/11/13 02:05:30;;;;;;;11.90;11.50;;;17.20;84.70;;;;;;5030728;28;20941;-57
2021/11/13 02:07:58;;;;;;;11.70;11.40;;;17.10;84.80;;;;;;5031068;28;20464;-53
2021/11/13 02:10:27;;;;;;;11.67;11.37;;;17.10;85.00;;;;;;5030839;28;20453;-53
2021/11/13 02:12:54;;;;;;;12.20;11.80;;;17.10;84.90;;;;;;5031626;28;20448;-53
2021/11/13 02:15:24;;;;;;;12.90;12.50;;;17.10;84.70;;;;;;5034575;28;20468;-55
2021/11/13 02:17:50;;;;;;;12.20;11.80;;;17.20;84.80;;;;;;5034441;28;20433;-51
2021/11/13 02:20:25;;;;;;;11.80;11.50;;;17.20;84.70;;;;;;5034312;28;20981;-53
2021/11/13 02:22:54;;;;;;;12.10;11.70;;;17.20;85.40;;;;;;5034382;28;20481;-54
2021/11/13 02:25:23;;;;;;;12.17;11.77;;;17.20;84.30;;;;;;5034272;28;20488;-52
2021/11/13 02:27:50;;;;;;;12.00;11.70;;;17.10;84.60;;;;;;5034282;28;20485;-52
2021/11/13 02:30:17;;;;;;;12.17;11.83;;;17.10;84.50;;;;;;5034151;28;20449;-57
2021/11/13 02:32:45;;;;;;;11.90;11.60;;;17.10;84.50;;;;;;5034231;28;20452;-54
2021/11/13 02:35:14;;;;;;;13.20;12.73;;;17.10;84.50;;;;;;5034232;28;20651;-53
2021/11/13 02:37:44;;;;;;;12.07;11.67;;;17.20;84.50;;;;;;5034054;28;20473;-53
2021/11/13 02:40:12;;;;;;;11.80;11.43;;;17.10;84.50;;;;;;5033870;28;20445;-56
2021/11/13 02:42:40;;;;;;;11.90;11.60;;;17.10;84.50;;;;;;5034018;28;20438;-54
2021/11/13 02:45:10;;;;;;;11.90;11.50;;;17.10;84.50;;;;;;5033916;28;20485;-54
2021/11/13 02:47:39;;;;;;;11.83;11.53;;;17.10;84.50;;;;;;5033896;28;20472;-52
2021/11/13 02:50:09;;;;;;;11.90;11.60;;;17.10;84.50;;;;;;5033675;28;20577;-55
2021/11/13 02:52:44;;;;;;;12.20;11.80;;;17.10;84.10;;;;;;5033770;28;20798;-52
2021/11/13 02:55:12;;;;;;;12.43;12.10;;;17.10;84.40;;;;;;5033856;28;20468;-51
2021/11/13 02:57:39;;;;;;;12.70;12.30;;;17.10;84.50;;;;;;5033676;28;20472;-56
2021/11/13 03:00:08;;;;;;;11.73;11.43;;;17.10;84.30;;;;;;5033507;28;20855;-54
2021/11/13 03:02:36;;;;;;;11.70;11.40;;;17.10;84.10;;;;;;5033676;28;20445;-55
2021/11/13 03:05:03;;;;;;;12.77;12.37;;;17.00;84.30;;;;;;5033569;28;20489;-57
2021/11/13 03:07:30;;;;;;;12.60;12.20;;;17.10;84.50;;;;;;5033504;28;20858;-55
2021/11/13 03:09:58;;;;;;;12.63;12.23;;;17.10;84.20;;;;;;5033396;28;20467;-53
2021/11/13 03:12:24;;;;;;;11.87;11.47;;;17.10;84.20;;;;;;5033469;28;20441;-51
2021/11/13 03:14:51;;;;;;;12.83;12.43;;;17.00;84.40;;;;;;5033446;28;20449;-54
2021/11/13 03:17:18;;;;;;;12.20;11.90;;;17.10;84.30;;;;;;5033352;28;20473;-51
2021/11/13 03:19:44;;;;;;;12.80;12.40;;;17.10;84.30;;;;;;5033163;28;20441;-53
2021/11/13 03:22:11;;;;;;;12.20;11.80;;;17.00;84.10;;;;;;5033291;28;20468;-55
2021/11/13 03:24:40;;;;;;;12.07;11.77;;;17.00;84.40;;;;;;5032884;28;20484;-54
2021/11/13 03:27:08;;;;;;;11.93;11.63;;;17.00;84.50;;;;;;5033118;28;21029;-51
2021/11/13 03:29:36;;;;;;;12.03;11.63;;;17.00;84.40;;;;;;5032992;28;20452;-51
2021/11/13 03:32:03;;;;;;;13.00;12.50;;;17.10;84.50;;;;;;5033077;28;20457;-55
2021/11/13 03:34:33;;;;;;;11.70;11.40;;;17.00;84.30;;;;;;5032994;28;20441;-54
2021/11/13 03:36:59;;;;;;;12.47;12.07;;;17.00;84.10;;;;;;5033060;28;20473;-54
2021/11/13 03:39:26;;;;;;;12.67;12.27;;;17.10;84.30;;;;;;5032755;28;20453;-52
2021/11/13 03:41:53;;;;;;;12.30;11.90;;;17.00;84.30;;;;;;5032856;28;20506;-52
2021/11/13 03:44:21;;;;;;;12.23;11.93;;;17.00;84.40;;;;;;5032907;28;20488;-54
2021/11/13 03:46:48;;;;;;;11.93;11.63;;;17.00;84.20;;;;;;5032687;28;20483;-59
2021/11/13 03:49:15;;;;;;;12.10;11.70;;;17.00;84.10;;;;;;5032696;28;20452;-56
2021/11/13 03:51:42;;;;;;;11.63;11.30;;;17.10;84.20;;;;;;5032711;28;20484;-55
2021/11/13 03:54:09;;;;;;;11.30;11.00;;;17.10;84.20;;;;;;5032679;28;20931;-53
2021/11/13 03:56:35;;;;;;;12.23;11.83;;;17.00;83.90;;;;;;5032523;28;20519;-51
2021/11/13 03:59:05;;;;;;;11.70;11.40;;;17.00;83.90;;;;;;5032389;28;20445;-54
2021/11/13 04:01:33;;;;;;;11.73;11.43;;;17.00;83.90;;;;;;5032528;28;20456;-52
2021/11/13 04:04:00;;;;;;;11.20;10.90;;;17.10;83.90;;;;;;5032496;28;20477;-53
2021/11/13 04:06:26;;;;;;;12.43;12.07;;;17.10;83.90;;;;;;5032240;28;20487;-55
2021/11/13 04:08:53;;;;;;;12.27;11.90;;;17.10;83.90;;;;;;5032183;28;20452;-56
2021/11/13 04:11:20;;;;;;;12.50;12.10;;;17.10;83.90;;;;;;5032365;28;20453;-55
2021/11/13 04:13:47;;;;;;;12.40;12.00;;;17.10;83.90;;;;;;5032475;28;20449;-59
2021/11/13 04:16:14;;;;;;;12.37;11.97;;;17.00;83.90;;;;;;5032246;28;20468;-53
2021/11/13 04:18:42;;;;;;;12.83;12.43;;;17.00;84.00;;;;;;5032233;28;20833;-56
2021/11/13 04:21:09;;;;;;;12.17;11.77;;;17.00;83.90;;;;;;5032325;28;20807;-57
2021/11/13 04:23:37;;;;;;;12.47;12.07;;;17.00;84.20;;;;;;5032277;28;20939;-56
2021/11/13 04:26:04;;;;;;;12.90;12.50;;;17.00;84.20;;;;;;5032039;28;20498;-55
2021/11/13 04:28:31;;;;;;;12.03;11.73;;;17.00;84.10;;;;;;5032079;28;20823;-58
2021/11/13 04:30:58;;;;;;;13.10;12.67;;;17.00;84.20;;;;;;5032018;28;20453;-57
2021/11/13 04:33:26;;;;;;;12.80;12.40;;;16.90;84.90;;;;;;5032083;28;20503;-59
2021/11/13 04:36:03;;;;;;;12.43;12.07;;;17.00;84.50;;;;;;5031300;28;20496;-58
2021/11/13 04:38:31;;;;;;;13.13;12.73;;;17.00;84.10;;;;;;5031855;28;20460;-60
2021/11/13 04:40:58;;;;;;;12.30;11.90;;;17.00;83.90;;;;;;5031876;28;20449;-58
2021/11/13 04:43:25;;;;;;;13.00;12.60;;;17.00;83.80;;;;;;5031855;28;20979;-58
2021/11/13 04:45:52;;;;;;;12.43;12.03;;;17.00;83.60;;;;;;5031661;28;20485;-58
2021/11/13 04:48:19;;;;;;;12.20;11.80;;;17.00;83.70;;;;;;5031828;28;20453;-56
2021/11/13 04:50:45;;;;;;;13.30;12.90;;;16.90;84.10;;;;;;5031623;28;20445;-59
2021/11/13 04:53:13;;;;;;;12.90;12.50;;;16.90;84.00;;;;;;5031749;28;20445;-57
2021/11/13 04:55:40;;;;;;;12.13;11.73;;;17.00;84.10;;;;;;5031532;28;20433;-58
2021/11/13 04:58:08;;;;;;;13.00;12.40;;;17.00;83.90;;;;;;5031537;28;20447;-56
2021/11/13 05:00:35;;;;;;;12.30;11.90;;;17.00;84.10;;;;;;5031482;28;20934;-52
2021/11/13 05:03:04;;;;;;;12.77;12.37;;;16.90;84.00;;;;;;5031705;28;20449;-55
2021/11/13 05:05:31;;;;;;;12.23;11.93;;;17.00;84.00;;;;;;5031432;28;20485;-52
2021/11/13 05:07:58;;;;;;;12.60;12.23;;;17.00;84.00;;;;;;5064874;22;20495;-54
2021/11/13 05:10:26;;;;;;;13.20;12.80;;;16.90;83.80;;;;;;5045681;28;20440;-51
2021/11/13 05:12:53;;;;;;;13.20;12.80;;;16.90;84.10;;;;;;5051474;28;20444;-53
2021/11/13 05:15:20;;;;;;;13.30;12.90;;;17.00;83.80;;;;;;5051472;28;20440;-52
2021/11/13 05:17:47;;;;;;;13.10;12.70;;;17.00;83.70;;;;;;5051287;28;20468;-51
2021/11/13 05:20:15;;;;;;;12.60;12.30;;;17.00;83.50;;;;;;5051306;28;20471;-50
2021/11/13 05:22:44;;;;;;;13.07;12.60;;;17.00;83.70;;;;;;5051328;28;20933;-52
2021/11/13 05:25:13;;;;;;;13.20;12.80;;;16.90;83.80;;;;;;5051319;28;20487;-52
2021/11/13 05:27:42;;;;;;;12.60;12.20;;;17.00;83.60;;;;;;5051199;28;20468;-52
2021/11/13 05:30:11;;;;;;;12.73;12.33;;;17.00;83.50;;;;;;5051071;28;20447;-53
2021/11/13 05:32:38;;;;;;;12.37;11.97;;;16.90;83.50;;;;;;5051356;28;20522;-54
2021/11/13 05:35:06;;;;;;;12.40;12.00;;;16.90;83.70;;;;;;5051155;28;20443;-50
2021/11/13 05:37:33;;;;;;;12.00;11.70;;;17.00;83.50;;;;;;5051191;28;20468;-54
2021/11/13 05:39:59;;;;;;;12.60;12.20;;;17.00;83.60;;;;;;5050987;28;20449;-50
2021/11/13 05:42:26;;;;;;;11.97;11.67;;;16.90;83.70;;;;;;5051199;28;20444;-52
2021/11/13 05:44:55;;;;;;;12.23;11.93;;;16.90;83.70;;;;;;5051093;28;20840;-57
2021/11/13 05:47:22;;;;;;;12.43;12.03;;;17.00;83.70;;;;;;5052620;28;20471;-53
2021/11/13 05:49:49;;;;;;;12.00;11.60;;;17.00;83.60;;;;;;5054937;28;20797;-49
2021/11/13 05:52:15;;;;;;;12.73;12.33;;;17.90;85.00;;;;;;5054995;28;20448;-53
2021/11/13 05:54:42;;;;;;;12.33;11.93;;;18.90;79.60;;;;;;5054906;28;20806;-52
2021/11/13 05:57:09;;;;;;;12.10;11.80;;;19.40;75.80;;;;;;5054850;28;20459;-51
2021/11/13 05:59:36;;;;;;;12.30;12.00;;;19.80;73.70;;;;;;5054709;28;20857;-56
2021/11/13 06:02:04;;;;;;;12.93;12.53;;;20.30;71.50;;;;;;5054912;28;20448;-50
2021/11/13 06:04:31;;;;;;;13.23;12.83;;;20.80;69.60;;;;;;5054645;28;20440;-53
2021/11/13 06:06:59;;;;;;;12.43;12.07;;;21.20;66.60;;;;;;5054530;28;20988;-53
2021/11/13 06:09:26;;;;;;;13.00;12.60;;;21.40;64.50;;;;;;5054387;28;20456;-55
2021/11/13 06:11:53;;;;;;;14.20;13.70;;;21.60;63.00;;;;;;5054680;28;20474;-57
2021/11/13 06:14:20;;;;;;;13.40;13.00;;;21.60;62.80;;;;;;5054742;28;20482;-54
2021/11/13 06:16:47;;;;;;;13.70;13.30;;;21.60;61.30;;;;;;5054505;28;20464;-56
2021/11/13 06:19:15;;;;;;;12.40;12.10;;;21.70;60.80;;;;;;5054294;28;20443;-57
2021/11/13 06:21:42;;;;;;;13.37;12.97;;;21.70;60.30;;;;;;5054562;28;20455;-58
2021/11/13 06:24:10;;;;;;;13.30;12.90;;;21.70;60.00;;;;;;5054232;28;20451;-55
2021/11/13 06:26:37;;;;;;;14.33;13.83;;;21.70;59.80;;;;;;5054221;28;20493;-56
2021/11/13 06:29:03;;;;;;;14.30;13.80;;;21.70;59.60;;;;;;5054094;28;21008;-59
2021/11/13 06:31:30;;;;;;;13.93;13.53;;;21.60;59.50;;;;;;5054271;28;20440;-55
2021/11/13 06:33:57;;;;;;;13.60;13.20;;;21.60;59.50;;;;;;5054200;28;20444;-53
2021/11/13 06:36:25;;;;;;;12.60;12.23;;;21.60;59.50;;;;;;5054174;28;20895;-51
2021/11/13 06:38:52;;;;;;;12.30;12.00;;;21.50;59.50;;;;;;5053864;28;20440;-50
2021/11/13 06:41:19;;;;;;;12.57;12.17;;;21.50;59.40;;;;;;5054104;28;20452;-53
2021/11/13 06:43:46;;;;;;;11.93;11.63;;;21.40;59.50;;;;;;5054091;28;20452;-50
2021/11/13 06:46:12;;;;;;;12.00;11.70;;;21.30;59.50;;;;;;5053791;28;20488;-53
2021/11/13 06:48:39;;;;;;;13.50;13.10;;;21.30;59.70;;;;;;5053872;28;20448;-52
2021/11/13 06:51:06;;;;;;;12.87;12.47;;;21.20;59.80;;;;;;5053795;28;20451;-52
2021/11/13 06:53:34;;;;;;;10.60;10.30;;;21.10;59.90;;;;;;5053763;28;20805;-52
2021/11/13 06:56:00;;;;;;;10.60;10.30;;;21.00;60.20;;;;;;5053734;28;20436;-51
2021/11/13 06:58:27;;;;;;;10.57;10.27;;;21.00;60.30;;;;;;5053071;28;20444;-53
2021/11/13 07:00:54;;;;;;;10.90;10.60;;;20.90;60.30;;;;;;5053527;28;20448;-52
2021/11/13 07:03:21;;;;;;;10.63;10.33;;;20.80;60.50;;;;;;5053799;28;20444;-56
2021/11/13 07:05:47;;;;;;;10.80;10.50;;;20.70;60.80;;;;;;5053520;28;20483;-52
2021/11/13 07:08:14;;;;;;;10.57;10.27;;;20.70;61.10;;;;;;5053559;28;20439;-52
2021/11/13 07:10:42;;;;;;;10.63;10.33;;;20.70;61.20;;;;;;5053435;28;20454;-53
2021/11/13 07:13:09;;;;;;;10.07;9.87;;;20.60;61.40;;;;;;5053394;28;20939;-55
2021/11/13 07:15:36;;;;;;;10.90;10.60;;;20.50;61.50;;;;;;5053475;28;20452;-50
2021/11/13 07:18:04;;;;;;;10.57;10.27;;;20.50;61.60;;;;;;5053401;28;20537;-51
2021/11/13 07:20:32;;;;;;;10.30;10.00;;;20.50;61.70;;;;;;5053116;28;20867;-50
2021/11/13 07:22:59;;;;;;;11.30;11.00;;;20.40;61.80;;;;;;5053272;28;20868;-52
2021/11/13 07:25:27;;;;;;;11.03;10.73;;;20.40;62.00;;;;;;5053184;28;20484;-51
2021/11/13 07:28:00;;;;;;;10.87;10.57;;;20.30;62.30;;;;;;5053060;28;20562;-55
2021/11/13 07:30:28;;;;;;;11.50;11.20;;;20.20;62.40;;;;;;5053023;28;20444;-50
2021/11/13 07:32:55;;;;;;;11.10;10.80;;;20.20;62.50;;;;;;5052979;28;20484;-54
2021/11/13 07:35:21;;;;;;;10.80;10.40;;;20.20;62.60;;;;;;5053143;28;20485;-50
2021/11/13 07:37:48;;;;;;;10.33;10.13;;;20.20;62.80;;;;;;5052849;28;20475;-50
2021/11/13 07:40:15;;;;;;;10.30;10.00;;;20.10;62.80;;;;;;5052790;28;20447;-55
2021/11/13 07:42:42;;;;;;;10.37;10.07;;;20.10;63.00;;;;;;5052966;28;20844;-54
2021/11/13 07:45:11;;;;;;;10.43;10.13;;;20.00;63.00;;;;;;5052725;28;20814;-50
2021/11/13 07:47:41;;;;;;;10.50;10.20;;;20.00;63.20;;;;;;5052760;28;20476;-54
2021/11/13 07:50:08;;;;;;;10.70;10.40;;;19.90;63.30;;;;;;5052845;28;20543;-51
2021/11/13 07:52:36;;;;;;;10.60;10.30;;;19.90;63.50;;;;;;5052748;28;20811;-50
2021/11/13 07:55:03;;;;;;;10.53;10.23;;;19.80;63.70;;;;;;5052588;28;20444;-56
2021/11/13 07:57:30;;;;;;;10.60;10.30;;;19.80;64.60;;;;;;5052517;28;20968;-53
2021/11/13 07:59:56;;;;;;;11.50;11.20;;;19.80;64.00;;;;;;5052298;28;20468;-57
2021/11/13 08:02:24;;;;;;;10.27;10.07;;;19.70;64.00;;;;;;5052587;28;20808;-50
2021/11/13 08:04:51;;;;;;;10.70;10.40;;;19.70;64.20;;;;;;5052634;28;20455;-60
2021/11/13 08:07:18;;;;;;;11.57;11.23;;;19.70;64.40;;;;;;5052161;28;20507;-56
2021/11/13 08:09:45;;;;;;;11.20;10.90;;;19.60;64.30;;;;;;5051928;28;20448;-56
2021/11/13 08:12:12;;;;;;;10.47;10.20;;;19.60;64.40;;;;;;5051726;28;20444;-58
2021/11/13 08:14:38;;;;;;;10.60;10.30;;;19.60;64.50;;;;;;5052416;28;20440;-57
2021/11/13 08:17:05;;;;;;;11.40;11.10;;;19.60;64.70;;;;;;5052089;28;20461;-56
2021/11/13 08:19:33;;;;;;;10.37;10.17;;;19.50;64.80;;;;;;5052010;28;20444;-54
2021/11/13 08:22:00;;;;;;;10.77;10.47;;;19.50;65.00;;;;;;5052202;28;20447;-57
2021/11/13 08:24:27;;;;;;;11.33;10.93;;;19.40;65.00;;;;;;5052141;28;20451;-56
2021/11/13 08:26:53;;;;;;;11.00;10.70;;;19.40;65.00;;;;;;5051988;28;20487;-50
2021/11/13 08:29:20;;;;;;;10.80;10.50;;;19.40;65.20;;;;;;5051863;28;20459;-55
2021/11/13 08:31:47;;;;;;;10.77;10.47;;;19.40;65.30;;;;;;5051979;28;20444;-51
2021/11/13 08:34:14;;;;;;;10.40;10.10;;;19.40;65.40;;;;;;5051882;28;20802;-57
2021/11/13 08:36:42;;;;;;;10.33;10.03;;;19.40;65.40;;;;;;5051789;28;21010;-55
2021/11/13 08:39:09;;;;;;;10.10;9.80;;;19.30;65.50;;;;;;5051578;28;20843;-58
2021/11/13 08:41:36;;;;;;;12.13;11.70;;;19.20;65.50;;;;;;5051824;28;20444;-56
2021/11/13 08:44:04;;;;;;;11.13;10.83;;;19.20;65.80;;;;;;5051745;28;20455;-55
2021/11/13 08:46:31;;;;;;;12.13;11.73;;;19.20;65.90;;;;;;5051673;28;20495;-54
2021/11/13 08:48:58;;;;;;;12.20;11.80;;;19.10;66.20;;;;;;5051556;28;20997;-55
2021/11/13 08:51:25;;;;;;;11.60;11.20;;;19.10;66.50;;;;;;5051637;28;20526;-54
2021/11/13 08:53:54;;;;;;;10.60;10.30;;;19.00;66.60;;;;;;5051690;28;20933;-53
2021/11/13 08:56:22;;;;;;;10.33;10.03;;;19.00;66.80;;;;;;5051622;28;20538;-55
2021/11/13 08:58:49;;;;;;;10.67;10.47;;;19.00;67.10;;;;;;5051410;28;20448;-53
2021/11/13 09:01:16;;;;;;;11.03;10.73;;;18.90;67.10;;;;;;5051596;28;20444;-55
2021/11/13 09:03:44;;;;;;;10.83;10.53;;;18.90;67.10;;;;;;5051649;28;20963;-51
2021/11/13 09:06:15;;;;;;;10.73;10.40;;;18.90;67.30;;;;;;5051103;28;20516;-51
2021/11/13 09:08:44;;;;;;;10.67;10.37;;;18.90;67.50;;;;;;5051344;28;20514;-50
2021/11/13 09:11:14;;;;;;;10.40;10.10;;;18.80;67.50;;;;;;5051330;28;20952;-52
2021/11/13 09:13:42;;;;;;;10.80;10.50;;;18.80;67.80;;;;;;5051439;28;20458;-52
2021/11/13 09:16:10;;;;;;;10.73;10.43;;;18.80;68.00;;;;;;5051234;28;20460;-50
2021/11/13 09:18:39;;;;;;;10.13;9.90;;;19.00;67.90;;;;;;5051342;28;20451;-51
2021/11/13 09:21:07;;;;;;;10.43;10.13;;;19.10;67.60;;;;;;5051330;28;20875;-50
2021/11/13 09:23:34;;;;;;;10.10;9.90;;;19.10;67.30;;;;;;5055034;28;20509;-55
2021/11/13 09:26:02;;;;;;;10.80;10.50;;;19.20;67.00;;;;;;5055423;28;20853;-50
2021/11/13 09:28:30;;;;;;;10.80;10.50;;;19.30;66.70;;;;;;5055359;28;20452;-52
2021/11/13 09:30:59;;;;;;;10.33;10.03;;;19.30;66.60;;;;;;5055283;28;20811;-50
2021/11/13 09:33:26;;;;;;;10.17;9.87;;;19.30;66.40;;;;;;5055215;28;20960;-53
2021/11/13 09:35:52;;;;;;;10.53;10.23;;;19.40;66.00;;;;;;5055025;28;20960;-50
2021/11/13 09:38:21;;;;;;;10.47;10.27;;;19.40;65.80;;;;;;5055311;28;20457;-55
2021/11/13 09:40:48;;;;;;;10.93;10.63;;;19.30;65.80;;;;;;5054972;28;20806;-50
2021/11/13 09:43:15;;;;;;;10.70;10.40;;;19.30;65.90;;;;;;5055168;28;20452;-52
2021/11/13 09:45:43;;;;;;;11.00;10.70;;;19.30;66.00;;;;;;5055106;28;20463;-52
2021/11/13 09:48:10;;;;;;;10.33;10.10;;;19.30;65.90;;;;;;5055064;28;20456;-50
2021/11/13 09:50:39;;;;;;;10.93;10.63;;;19.30;65.80;;;;;;5054900;28;20443;-52
2021/11/13 09:53:08;;;;;;;10.63;10.33;;;19.30;66.00;;;;;;5055036;28;20805;-55
2021/11/13 09:55:35;;;;;;;11.57;11.27;;;19.30;65.70;;;;;;5054966;28;20848;-54
2021/11/13 09:58:02;;;;;;;11.13;10.83;;;19.30;65.70;;;;;;5054846;28;20467;-50
2021/11/13 10:00:31;;;;;;;11.13;10.80;;;19.40;65.80;;;;;;5054534;28;20804;-56
2021/11/13 10:03:00;;;;;;;10.63;10.33;;;19.40;65.60;;;;;;5054733;28;20451;-54
2021/11/13 10:05:27;;;;;;;10.87;10.57;;;19.40;65.50;;;;;;5054730;28;20529;-53
2021/11/13 10:07:54;;;;;;;10.87;10.57;;;19.40;65.50;;;;;;5054407;28;20480;-58
2021/11/13 10:10:29;;;;;;;10.60;10.30;;;19.40;65.40;;;;;;5054631;28;20868;-58
2021/11/13 10:12:56;;;;;;;10.50;10.20;;;19.30;66.20;;;;;;5054665;28;20453;-56
2021/11/13 10:15:32;;;;;;;10.70;10.40;;;19.30;65.40;;;;;;5054507;28;20452;-54
2021/11/13 10:18:09;;;;;;;10.30;10.10;;;19.30;65.50;;;;;;5054422;28;20460;-53
2021/11/13 10:20:37;;;;;;;9.90;9.70;;;19.30;65.40;;;;;;5054424;28;20948;-57
2021/11/13 10:23:04;;;;;;;9.50;9.20;;;19.20;65.40;;;;;;5054484;28;20444;-53
2021/11/13 10:25:31;;;;;;;9.97;9.67;;;19.30;65.60;;;;;;5054443;28;20470;-58
2021/11/13 10:28:10;;;;;;;9.50;9.30;;;19.30;65.60;;;;;;5054308;28;20537;-58
2021/11/13 10:30:37;;;;;;;9.63;9.43;;;19.20;65.50;;;;;;5054102;28;20444;-56
2021/11/13 10:33:05;;;;;;;9.93;9.63;;;19.20;65.70;;;;;;5053550;28;20933;-57
2021/11/13 10:35:46;;;;;;;10.70;10.40;;;19.20;65.70;;;;;;5053626;28;20531;-58
2021/11/13 10:38:14;;;;;;;10.50;10.20;;;19.10;65.80;;;;;;5054258;28;20468;-57
2021/11/13 10:40:53;;;;;;;10.57;10.33;;;19.10;65.90;;;;;;5054147;28;20445;-58
2021/11/13 10:43:20;;;;;;;10.30;10.00;;;19.10;66.10;;;;;;5053991;28;20448;-55
2021/11/13 10:45:58;;;;;;;10.80;10.50;;;19.10;66.10;;;;;;5053967;28;20471;-57
2021/11/13 10:48:26;;;;;;;10.40;10.20;;;19.00;66.20;;;;;;5053825;28;20451;-55
2021/11/13 10:51:01;;;;;;;10.60;10.37;;;19.00;66.40;;;;;;5053589;28;20479;-58
2021/11/13 10:53:30;;;;;;;11.00;10.70;;;18.90;66.60;;;;;;5053907;28;20467;-53
2021/11/13 10:56:04;;;;;;;10.00;9.80;;;18.90;66.80;;;;;;5053811;28;20456;-57
2021/11/13 10:58:33;;;;;;;10.43;10.13;;;18.80;66.90;;;;;;5053618;28;20456;-50
2021/11/13 11:01:02;;;;;;;10.00;9.70;;;18.80;67.10;;;;;;5053726;28;20448;-54
2021/11/13 11:03:34;;;;;;;9.63;9.43;;;18.80;67.20;;;;;;5053653;28;20451;-58
2021/11/13 11:06:01;;;;;;;10.37;10.10;;;18.90;67.40;;;;;;5053283;28;20451;-56
2021/11/13 11:08:30;;;;;;;9.70;9.50;;;18.90;67.20;;;;;;5068546;22;20480;-55
2021/11/13 11:10:56;;;;;;;9.20;9.00;;;19.00;67.10;;;;;;5052081;28;20440;-53
2021/11/13 11:13:42;;;;;;;9.47;9.20;;;19.10;66.80;;;;;;5053449;28;20451;-55
2021/11/13 11:16:22;;;;;;;9.53;9.33;;;19.20;66.50;;;;;;5053317;28;20456;-57
2021/11/13 11:19:03;;;;;;;9.10;8.90;;;19.20;66.10;;;;;;5033116;28;20445;-58
2021/11/13 11:21:47;;;;;;;9.50;9.30;;;19.30;66.00;;;;;;5033346;28;20487;-53
2021/11/13 11:24:15;;;;;;;9.50;9.30;;;19.30;65.80;;;;;;5033399;28;20531;-53
2021/11/13 11:26:45;;;;;;;8.57;8.37;;;19.30;65.70;;;;;;5033277;28;20488;-55
2021/11/13 11:29:12;;;;;;;9.53;9.23;;;19.30;65.80;;;;;;5032979;28;20460;-58
2021/11/13 11:31:42;;;;;;;9.00;8.80;;;19.30;65.80;;;;;;5032946;28;20961;-55
2021/11/13 11:34:23;;;;;;;8.77;8.57;;;19.30;65.60;;;;;;5033035;28;20481;-56
2021/11/13 11:36:50;;;;;;;9.50;9.30;;;19.30;65.60;;;;;;5033050;28;20461;-53
2021/11/13 11:39:18;;;;;;;9.20;9.00;;;19.30;65.50;;;;;;5032772;28;20452;-53
2021/11/13 11:41:45;;;;;;;8.90;8.70;;;19.40;65.40;;;;;;5032949;28;20441;-53
2021/11/13 11:44:13;;;;;;;9.50;9.30;;;19.40;65.40;;;;;;5032922;28;20445;-59
2021/11/13 11:46:39;;;;;;;9.83;9.63;;;19.40;65.30;;;;;;5032483;28;20878;-54
2021/11/13 11:49:06;;;;;;;9.93;9.67;;;19.40;65.10;;;;;;5032485;28;20446;-54
2021/11/13 11:51:35;;;;;;;9.50;9.30;;;19.40;65.10;;;;;;5032864;28;20802;-57
2021/11/13 11:54:05;;;;;;;9.70;9.50;;;19.40;65.10;;;;;;5032677;28;20453;-57
2021/11/13 11:56:33;;;;;;;9.60;9.40;;;19.40;65.10;;;;;;5032532;28;20442;-54
2021/11/13 11:59:01;;;;;;;10.03;9.83;;;19.40;65.10;;;;;;5032417;28;20449;-55
2021/11/13 12:01:30;;;;;;;9.57;9.37;;;19.40;65.00;;;;;;5032552;28;20849;-54
2021/11/13 12:04:19;;;;;;;9.53;9.33;;;19.40;65.00;;;;;;5032656;28;20441;-57
2021/11/13 12:06:51;;;;;;;9.13;8.93;;;19.30;65.00;;;;;;5032018;28;20496;-60
2021/11/13 12:09:19;;;;;;;9.23;8.93;;;19.30;65.10;;;;;;5032229;28;20476;-58
2021/11/13 12:11:47;;;;;;;9.80;9.60;;;19.30;65.20;;;;;;5032453;28;20453;-52
2021/11/13 12:14:36;;;;;;;10.40;10.20;;;19.30;65.40;;;;;;5032273;28;20452;-57
2021/11/13 12:17:23;;;;;;;9.87;9.67;;;19.30;65.50;;;;;;5032236;28;20826;-53
2021/11/13 12:20:25;;;;;;;9.97;9.77;;;19.20;65.40;;;;;;5032051;28;20456;-60
2021/11/13 12:23:06;;;;;;;9.23;9.03;;;19.20;65.50;;;;;;5032249;28;20539;-60
2021/11/13 12:25:35;;;;;;;10.17;9.90;;;19.20;65.60;;;;;;5032151;28;20437;-58
2021/11/13 12:28:14;;;;;;;9.10;8.90;;;19.20;65.60;;;;;;5031922;28;20495;-54
2021/11/13 12:31:10;;;;;;;9.23;8.93;;;19.20;65.60;;;;;;5031910;28;20448;-56
2021/11/13 12:33:50;;;;;;;9.47;9.27;;;19.20;65.70;;;;;;5032073;28;20444;-58
2021/11/13 12:36:21;;;;;;;10.17;9.87;;;19.20;65.80;;;;;;5031961;28;20441;-60